createdAt,value
2023-05-31T00:01:51.412Z,85.96
2023-05-31T00:04:54.480Z,86.46
2023-05-31T00:07:57.034Z,86.71
2023-05-31T00:11:00.094Z,86.61
2023-05-31T00:14:02.870Z,86.89
2023-05-31T00:17:24.056Z,86.11
2023-05-31T00:20:28.581Z,87.02
2023-05-31T00:23:31.472Z,87.14
2023-05-31T00:26:34.108Z,85.90
2023-05-31T00:29:36.962Z,87.05
2023-05-31T00:32:40.565Z,86.55
2023-05-31T00:35:43.450Z,86.54
2023-05-31T00:38:46.390Z,86.50
2023-05-31T00:41:49.256Z,86.46
2023-05-31T00:44:51.777Z,87.07
2023-05-31T00:47:54.773Z,87.40
2023-05-31T00:50:57.619Z,86.32
2023-05-31T00:54:01.228Z,87.11
2023-05-31T00:57:04.086Z,87.09
2023-05-31T01:00:09.137Z,87.66
2023-05-31T01:03:14.100Z,86.03
2023-05-31T01:06:16.963Z,86.25
2023-05-31T01:09:19.902Z,86.87
2023-05-31T01:12:32.562Z,86.41
2023-05-31T01:15:40.293Z,87.28
2023-05-31T01:18:49.767Z,87.68
2023-05-31T01:22:15.895Z,86.63
2023-05-31T01:25:56.408Z,87.27
2023-05-31T01:29:05.579Z,87.51
2023-05-31T01:32:08.776Z,87.88
2023-05-31T01:35:11.702Z,87.63
2023-05-31T01:38:14.609Z,86.69
2023-05-31T01:41:17.758Z,87.56
2023-05-31T01:44:20.924Z,88.05
2023-05-31T01:47:23.973Z,88.20
2023-05-31T01:50:28.089Z,88.47
2023-05-31T01:53:30.897Z,88.68
2023-05-31T01:56:33.956Z,88.06
2023-05-31T01:59:37.174Z,87.79
2023-05-31T02:02:44.830Z,88.28
2023-05-31T02:06:01.058Z,88.95
2023-05-31T02:09:05.251Z,88.92
2023-05-31T02:12:08.310Z,89.10
2023-05-31T02:15:14.372Z,89.46
2023-05-31T02:18:18.176Z,89.21
2023-05-31T02:21:21.382Z,89.06
2023-05-31T02:24:24.299Z,89.46
2023-05-31T02:27:26.907Z,88.85
2023-05-31T02:30:31.557Z,89.19
2023-05-31T02:33:34.144Z,89.17
2023-05-31T02:36:37.015Z,89.17
2023-05-31T02:39:40.769Z,88.83
2023-05-31T02:42:44.036Z,89.30
2023-05-31T02:45:46.570Z,89.47
2023-05-31T02:48:49.759Z,89.56
2023-05-31T02:51:53.196Z,89.80
2023-05-31T02:54:59.450Z,89.28
2023-05-31T02:58:02.908Z,89.24
2023-05-31T03:01:06.719Z,88.89
2023-05-31T03:04:10.744Z,88.17
2023-05-31T03:07:13.857Z,87.21
2023-05-31T03:10:16.597Z,86.93
2023-05-31T03:13:19.495Z,86.82
2023-05-31T03:16:22.132Z,86.43
2023-05-31T03:19:25.286Z,86.17
2023-05-31T03:22:28.042Z,86.57
2023-05-31T03:25:31.394Z,86.70
2023-05-31T03:28:34.104Z,85.55
2023-05-31T03:31:37.119Z,86.88
2023-05-31T03:34:39.868Z,86.74
2023-05-31T03:37:42.846Z,86.87
2023-05-31T03:40:45.563Z,86.17
2023-05-31T03:43:52.009Z,86.53
2023-05-31T03:46:54.668Z,87.84
2023-05-31T03:49:58.491Z,87.72
2023-05-31T03:53:01.135Z,87.43
2023-05-31T03:56:04.279Z,87.67
2023-05-31T03:59:07.250Z,88.50
2023-05-31T04:02:10.317Z,89.40
2023-05-31T04:05:13.611Z,89.95
2023-05-31T04:08:18.202Z,90.17
2023-05-31T04:11:21.557Z,89.27
2023-05-31T04:14:24.312Z,89.50
2023-05-31T04:17:27.541Z,90.33
2023-05-31T04:20:30.498Z,90.06
2023-05-31T04:23:33.541Z,89.53
2023-05-31T04:26:36.656Z,90.47
2023-05-31T04:29:40.335Z,89.56
2023-05-31T04:32:43.053Z,90.28
2023-05-31T04:35:46.627Z,90.50
2023-05-31T04:38:49.425Z,90.66
2023-05-31T04:41:54.237Z,90.09
2023-05-31T04:45:02.602Z,89.93
2023-05-31T04:48:07.085Z,89.89
2023-05-31T04:51:09.761Z,90.24
2023-05-31T04:54:12.737Z,90.58
2023-05-31T04:57:15.808Z,90.78
2023-05-31T05:00:20.621Z,91.26
2023-05-31T05:03:25.420Z,90.91
2023-05-31T05:06:29.082Z,90.35
2023-05-31T05:09:31.696Z,89.69
2023-05-31T05:12:34.874Z,89.30
2023-05-31T05:15:37.579Z,88.91
2023-05-31T05:18:41.393Z,88.56
2023-05-31T05:21:43.968Z,88.58
2023-05-31T05:24:47.502Z,88.05
2023-05-31T05:27:50.406Z,87.08
2023-05-31T05:30:54.571Z,86.46
2023-05-31T05:33:58.467Z,87.92
2023-05-31T05:37:01.558Z,87.95
2023-05-31T05:40:07.420Z,87.18
2023-05-31T05:43:11.925Z,86.02
2023-05-31T05:46:15.320Z,83.86
2023-05-31T05:49:19.829Z,83.51
2023-05-31T05:52:23.636Z,84.90
2023-05-31T05:55:26.589Z,85.55
2023-05-31T05:58:29.409Z,84.21
2023-05-31T06:01:36.028Z,81.47
2023-05-31T06:04:40.306Z,80.96
2023-05-31T06:07:43.272Z,81.27
2023-05-31T06:10:46.568Z,81.60
2023-05-31T06:13:49.131Z,79.76
2023-05-31T06:16:52.659Z,81.81
2023-05-31T06:19:55.428Z,81.54
2023-05-31T06:22:58.414Z,81.12
2023-05-31T06:26:01.151Z,77.51
2023-05-31T06:29:04.192Z,78.60
2023-05-31T06:32:09.929Z,78.65
2023-05-31T06:35:13.077Z,78.18
2023-05-31T06:38:17.786Z,78.82
2023-05-31T06:41:21.552Z,77.70
2023-05-31T06:44:24.213Z,77.98
2023-05-31T06:47:27.517Z,77.80
2023-05-31T06:50:32.113Z,74.33
2023-05-31T06:53:38.160Z,76.35
2023-05-31T06:56:44.017Z,75.56
2023-05-31T06:59:47.021Z,75.13
2023-05-31T07:02:49.721Z,73.96
2023-05-31T07:05:52.733Z,74.48
2023-05-31T07:08:56.148Z,73.83
2023-05-31T07:12:01.724Z,73.08
2023-05-31T07:15:05.238Z,72.23
2023-05-31T07:18:08.252Z,69.62
2023-05-31T07:21:11.027Z,71.36
2023-05-31T07:24:13.984Z,68.49
2023-05-31T07:27:16.467Z,70.02
2023-05-31T07:30:19.511Z,69.12
2023-05-31T07:33:28.285Z,70.20
2023-05-31T07:36:32.290Z,66.03
2023-05-31T07:39:34.804Z,64.67
2023-05-31T07:42:38.366Z,67.52
2023-05-31T07:45:40.953Z,68.14
2023-05-31T07:48:44.045Z,64.42
2023-05-31T07:51:46.737Z,63.94
2023-05-31T07:54:52.741Z,61.39
2023-05-31T07:57:55.459Z,61.75
2023-05-31T08:00:58.724Z,64.37
2023-05-31T08:04:08.994Z,63.01
2023-05-31T08:07:11.579Z,63.86
2023-05-31T08:10:14.441Z,61.67
2023-05-31T08:13:16.912Z,59.46
2023-05-31T08:16:19.767Z,57.75
2023-05-31T08:19:22.312Z,59.50
2023-05-31T08:22:25.157Z,62.27
2023-05-31T08:25:27.868Z,59.22
2023-05-31T08:28:33.507Z,59.07
2023-05-31T08:31:36.346Z,61.08
2023-05-31T08:34:39.356Z,60.22
2023-05-31T08:37:41.955Z,56.94
2023-05-31T08:40:44.912Z,55.56
2023-05-31T08:43:48.054Z,54.36
2023-05-31T08:46:51.019Z,54.35
2023-05-31T08:49:53.972Z,53.51
2023-05-31T08:52:57.218Z,56.13
2023-05-31T08:56:02.362Z,54.60
2023-05-31T08:59:08.856Z,55.12
2023-05-31T09:02:11.877Z,52.85
2023-05-31T09:05:15.464Z,56.21
2023-05-31T09:08:18.214Z,53.14
2023-05-31T09:11:21.733Z,52.36
2023-05-31T09:14:25.804Z,48.23
2023-05-31T09:17:28.768Z,50.41
2023-05-31T09:20:33.948Z,48.86
2023-05-31T09:23:37.040Z,47.46
2023-05-31T09:26:53.707Z,46.75
2023-05-31T09:29:57.285Z,46.94
2023-05-31T09:33:00.341Z,44.56
2023-05-31T09:36:03.172Z,45.97
2023-05-31T09:39:08.469Z,45.80
2023-05-31T09:42:15.200Z,42.66
2023-05-31T09:45:18.617Z,41.66
2023-05-31T09:48:21.433Z,42.82
2023-05-31T09:51:24.272Z,42.84
2023-05-31T09:54:28.624Z,41.94
2023-05-31T09:57:41.505Z,43.83
2023-05-31T10:00:48.832Z,41.49
2023-05-31T10:03:51.904Z,41.36
2023-05-31T10:06:54.948Z,43.34
2023-05-31T10:09:57.878Z,40.44
2023-05-31T10:13:04.177Z,40.34
2023-05-31T10:16:08.325Z,41.37
2023-05-31T10:19:13.086Z,38.58
2023-05-31T10:22:17.227Z,39.53
2023-05-31T10:25:31.538Z,40.55
2023-05-31T10:28:38.773Z,41.61
2023-05-31T10:31:45.384Z,37.21
2023-05-31T10:34:49.100Z,37.68
2023-05-31T10:37:54.458Z,38.60
2023-05-31T10:41:07.468Z,40.41
2023-05-31T10:44:16.204Z,40.39
2023-05-31T10:47:22.306Z,37.61
2023-05-31T10:50:25.051Z,38.14
2023-05-31T10:53:34.886Z,38.11
2023-05-31T10:56:40.169Z,36.44
2023-05-31T10:59:46.044Z,38.83
2023-05-31T11:02:50.887Z,37.30
2023-05-31T11:06:01.069Z,37.38
2023-05-31T11:09:16.697Z,34.74
2023-05-31T11:12:36.077Z,34.03
2023-05-31T11:15:43.323Z,35.37
2023-05-31T11:18:46.260Z,37.09
2023-05-31T11:21:49.650Z,37.33
2023-05-31T11:24:59.410Z,35.59
2023-05-31T11:28:08.085Z,35.43
2023-05-31T11:31:15.725Z,35.22
2023-05-31T11:34:19.240Z,35.61
2023-05-31T11:37:24.214Z,34.32
2023-05-31T11:40:27.254Z,37.27
2023-05-31T11:43:30.075Z,35.81
2023-05-31T11:46:32.614Z,36.15
2023-05-31T11:49:35.584Z,35.63
2023-05-31T11:52:40.416Z,34.95
2023-05-31T11:55:48.934Z,35.92
2023-05-31T11:58:51.566Z,33.01
2023-05-31T12:02:00.224Z,32.00
2023-05-31T12:05:04.599Z,35.63
2023-05-31T12:08:11.198Z,32.51
2023-05-31T12:11:14.238Z,33.01
2023-05-31T12:14:16.865Z,32.85
2023-05-31T12:17:19.805Z,31.99
2023-05-31T12:20:22.516Z,33.88
2023-05-31T12:23:25.470Z,36.60
2023-05-31T12:26:28.525Z,33.55
2023-05-31T12:29:32.287Z,34.37
2023-05-31T12:32:34.936Z,32.02
2023-05-31T12:35:44.938Z,31.63
2023-05-31T12:38:47.513Z,31.59
2023-05-31T12:41:51.231Z,33.15
2023-05-31T12:44:53.761Z,33.92
2023-05-31T12:47:59.967Z,34.27
2023-05-31T12:51:05.586Z,32.84
2023-05-31T12:54:14.981Z,35.46
2023-05-31T12:57:17.537Z,35.53
2023-05-31T13:00:20.841Z,37.48
2023-05-31T13:03:23.654Z,37.31
2023-05-31T13:06:26.586Z,36.33
2023-05-31T13:09:29.201Z,32.35
2023-05-31T13:12:32.311Z,34.00
2023-05-31T13:15:35.067Z,34.20
2023-05-31T13:18:37.901Z,32.44
2023-05-31T13:21:40.674Z,33.51
2023-05-31T13:24:43.525Z,34.24
2023-05-31T13:27:46.415Z,34.66
2023-05-31T13:30:49.504Z,35.59
2023-05-31T13:33:52.342Z,35.50
2023-05-31T13:36:55.267Z,33.07
2023-05-31T13:39:59.026Z,34.14
2023-05-31T13:43:02.202Z,36.42
2023-05-31T13:46:06.707Z,35.44
2023-05-31T13:49:09.771Z,34.13
2023-05-31T13:52:15.046Z,33.89
2023-05-31T13:55:18.145Z,33.87
2023-05-31T13:58:20.696Z,35.62
2023-05-31T14:01:23.661Z,35.27
2023-05-31T14:04:26.944Z,36.50
2023-05-31T14:07:30.608Z,35.95
2023-05-31T14:10:34.556Z,33.36
2023-05-31T14:13:37.175Z,34.07
2023-05-31T14:16:40.149Z,36.80
2023-05-31T14:19:43.516Z,36.75
2023-05-31T14:22:46.338Z,35.43
2023-05-31T14:25:48.898Z,36.21
2023-05-31T14:28:51.820Z,37.30
2023-05-31T14:31:54.394Z,37.13
2023-05-31T14:34:57.331Z,39.49
2023-05-31T14:38:08.771Z,39.62
2023-05-31T14:41:22.914Z,39.21
2023-05-31T14:44:26.005Z,38.86
2023-05-31T14:47:28.920Z,37.85
2023-05-31T14:50:31.506Z,40.01
2023-05-31T14:53:34.255Z,41.03
2023-05-31T14:56:36.814Z,38.46
2023-05-31T14:59:39.809Z,38.13
2023-05-31T15:02:42.450Z,40.38
2023-05-31T15:05:45.521Z,38.12
2023-05-31T15:08:48.210Z,40.59
2023-05-31T15:11:51.357Z,41.73
2023-05-31T15:14:54.110Z,41.01
2023-05-31T15:17:57.040Z,42.50
2023-05-31T15:21:00.179Z,40.98
2023-05-31T15:24:04.606Z,42.17
2023-05-31T15:27:07.206Z,42.16
2023-05-31T15:30:10.589Z,41.59
2023-05-31T15:33:13.100Z,40.21
2023-05-31T15:36:16.016Z,39.71
2023-05-31T15:39:18.748Z,43.01
2023-05-31T15:42:21.696Z,40.71
2023-05-31T15:45:24.338Z,40.68
2023-05-31T15:48:27.191Z,41.06
2023-05-31T15:51:29.761Z,41.04
2023-05-31T15:54:32.706Z,40.43
2023-05-31T15:57:35.626Z,42.83
2023-05-31T16:00:39.398Z,42.25
2023-05-31T16:03:42.341Z,44.60
2023-05-31T16:06:44.882Z,44.02
2023-05-31T16:09:47.682Z,44.07
2023-05-31T16:12:50.229Z,43.93
2023-05-31T16:15:53.164Z,43.16
2023-05-31T16:18:56.332Z,44.81
2023-05-31T16:21:59.311Z,45.56
2023-05-31T16:25:01.980Z,44.39
2023-05-31T16:28:04.872Z,46.14
2023-05-31T16:31:13.431Z,45.56
2023-05-31T16:34:17.727Z,46.07
2023-05-31T16:37:22.325Z,46.78
2023-05-31T16:40:25.254Z,48.35
2023-05-31T16:43:27.921Z,48.84
2023-05-31T16:46:31.319Z,48.04
2023-05-31T16:49:34.005Z,49.06
2023-05-31T16:52:36.876Z,48.87
2023-05-31T16:55:39.635Z,50.92
2023-05-31T16:58:42.761Z,52.51
2023-05-31T17:01:45.578Z,52.39
2023-05-31T17:04:48.472Z,53.39
2023-05-31T17:07:51.317Z,51.67
2023-05-31T17:10:54.114Z,53.15
2023-05-31T17:13:56.677Z,54.67
2023-05-31T17:16:59.629Z,57.18
2023-05-31T17:20:02.172Z,58.79
2023-05-31T17:23:05.009Z,59.45
2023-05-31T17:26:07.648Z,58.29
2023-05-31T17:29:11.136Z,59.69
2023-05-31T17:32:13.733Z,61.37
2023-05-31T17:35:16.780Z,62.58
2023-05-31T17:38:19.292Z,63.46
2023-05-31T17:41:23.660Z,65.07
2023-05-31T17:44:26.385Z,64.42
2023-05-31T17:47:29.416Z,65.39
2023-05-31T17:50:31.998Z,65.53
2023-05-31T17:53:34.972Z,65.65
2023-05-31T17:56:40.902Z,66.49
2023-05-31T17:59:44.618Z,65.68
2023-05-31T18:02:47.288Z,66.33
2023-05-31T18:05:50.360Z,67.79
2023-05-31T18:08:52.873Z,66.61
2023-05-31T18:11:56.430Z,66.25
2023-05-31T18:14:59.065Z,66.65
2023-05-31T18:18:01.945Z,67.17
2023-05-31T18:21:04.566Z,67.06
2023-05-31T18:24:07.402Z,67.30
2023-05-31T18:27:15.203Z,68.49
2023-05-31T18:30:18.449Z,68.67
2023-05-31T18:33:21.058Z,69.05
2023-05-31T18:36:24.336Z,69.32
2023-05-31T18:39:27.162Z,68.12
2023-05-31T18:42:30.082Z,67.57
2023-05-31T18:45:32.777Z,67.09
2023-05-31T18:48:37.527Z,66.52
2023-05-31T18:51:41.021Z,65.85
2023-05-31T18:54:44.539Z,65.83
2023-05-31T18:57:47.412Z,65.65
2023-05-31T19:00:50.661Z,65.19
2023-05-31T19:03:53.405Z,66.20
2023-05-31T19:06:56.428Z,68.13
2023-05-31T19:09:59.288Z,69.76
2023-05-31T19:13:02.275Z,71.89
2023-05-31T19:16:05.184Z,70.94
2023-05-31T19:19:08.066Z,70.69
2023-05-31T19:22:10.845Z,68.42
2023-05-31T19:25:14.165Z,69.01
2023-05-31T19:28:16.899Z,65.69
2023-05-31T19:31:20.104Z,63.70
2023-05-31T19:34:22.828Z,61.27
2023-05-31T19:37:25.934Z,62.60
2023-05-31T19:40:30.894Z,60.11
2023-05-31T19:43:35.039Z,59.83
2023-05-31T19:46:37.652Z,60.53
2023-05-31T19:49:40.669Z,60.03
2023-05-31T19:52:47.236Z,59.45
2023-05-31T19:55:50.249Z,59.98
2023-05-31T19:58:52.821Z,59.91
2023-05-31T20:01:56.995Z,59.86
2023-05-31T20:04:59.991Z,59.67
2023-05-31T20:08:04.139Z,60.17
2023-05-31T20:11:07.828Z,60.89
2023-05-31T20:14:10.806Z,61.29
2023-05-31T20:17:13.718Z,63.39
2023-05-31T20:20:16.554Z,61.56
2023-05-31T20:23:19.560Z,63.02
2023-05-31T20:26:25.277Z,64.39
2023-05-31T20:29:28.346Z,64.75
2023-05-31T20:32:31.104Z,63.11
2023-05-31T20:35:34.070Z,65.86
2023-05-31T20:38:36.905Z,65.46
2023-05-31T20:41:39.811Z,63.42
2023-05-31T20:44:44.750Z,61.76
2023-05-31T20:47:47.666Z,62.62
2023-05-31T20:50:50.409Z,61.76
2023-05-31T20:53:53.352Z,60.05
2023-05-31T20:56:56.476Z,60.51
2023-05-31T20:59:59.785Z,60.07
2023-05-31T21:03:03.528Z,59.51
2023-05-31T21:06:06.872Z,60.91
2023-05-31T21:09:09.464Z,60.08
2023-05-31T21:12:12.945Z,58.05
2023-05-31T21:15:15.953Z,57.69
2023-05-31T21:18:18.990Z,56.68
2023-05-31T21:21:21.878Z,57.71
2023-05-31T21:24:24.912Z,57.61
2023-05-31T21:27:27.846Z,58.29
2023-05-31T21:30:30.722Z,57.99
2023-05-31T21:33:33.496Z,58.86
2023-05-31T21:36:36.790Z,58.60
2023-05-31T21:39:39.440Z,58.92
2023-05-31T21:42:42.240Z,59.88
2023-05-31T21:45:44.910Z,59.73
2023-05-31T21:48:47.732Z,59.61
2023-05-31T21:51:50.301Z,59.60
2023-05-31T21:54:53.299Z,59.94
2023-05-31T21:57:55.798Z,60.39
2023-05-31T22:00:59.553Z,61.18
2023-05-31T22:04:02.702Z,60.84
2023-05-31T22:07:05.954Z,61.13
2023-05-31T22:10:09.067Z,60.18
2023-05-31T22:13:11.552Z,60.75
2023-05-31T22:16:22.246Z,60.94
2023-05-31T22:19:26.628Z,61.16
2023-05-31T22:22:30.133Z,61.01
2023-05-31T22:25:32.889Z,61.24
2023-05-31T22:28:36.191Z,61.79
2023-05-31T22:31:38.955Z,62.17
2023-05-31T22:34:41.931Z,62.19
2023-05-31T22:37:46.923Z,62.65
2023-05-31T22:40:50.005Z,62.91
2023-05-31T22:43:52.593Z,63.48
2023-05-31T22:46:55.844Z,63.11
2023-05-31T22:49:58.656Z,63.18
2023-05-31T22:53:01.710Z,63.51
2023-05-31T22:56:04.490Z,63.55
2023-05-31T22:59:07.368Z,63.65
2023-05-31T23:02:10.438Z,62.70
2023-05-31T23:05:13.966Z,64.62
2023-05-31T23:08:19.758Z,62.87
2023-05-31T23:11:30.297Z,62.16
2023-05-31T23:14:33.544Z,62.65
2023-05-31T23:17:40.638Z,61.48
2023-05-31T23:20:44.805Z,62.78
2023-05-31T23:23:47.663Z,62.95
2023-05-31T23:26:50.301Z,61.81
2023-05-31T23:29:53.116Z,62.18
2023-05-31T23:32:55.997Z,62.64
2023-05-31T23:35:58.938Z,63.16
2023-05-31T23:39:01.469Z,64.00
2023-05-31T23:42:04.607Z,64.29
2023-05-31T23:45:07.564Z,64.99
2023-05-31T23:48:11.646Z,65.60
2023-05-31T23:51:14.177Z,65.95
2023-05-31T23:54:17.062Z,66.54
2023-05-31T23:57:19.655Z,66.85
